Time;durP1;ratioP1;P1;durP2;ratioP2;P2;SDS_P1;SDS_P2;PMS_P1;PMS_P2;Temp;Humidity;BMP_temperature;BMP_pressure;BME280_temperature;BME280_humidity;BME280_pressure;Samples;Min_cycle;Max_cycle;Signal;HPM_P1;HPM_P2
2022/06/21 00:01:23;;;;;;;15.43;10.38;;;;;;;14.64;82.00;100381.31;4913783;29;20048;-78
2022/06/21 00:03:51;;;;;;;12.38;10.45;;;;;;;14.45;82.67;100362.16;4912347;29;20162;-76
2022/06/21 00:06:22;;;;;;;12.57;9.88;;;;;;;14.44;82.96;100384.41;4916621;29;20048;-77
2022/06/21 00:08:49;;;;;;;12.65;11.30;;;;;;;14.31;83.72;100387.81;4908618;29;20114;-76
2022/06/21 00:11:22;;;;;;;13.13;10.80;;;;;;;14.23;84.56;100386.56;4911832;29;20048;-76
2022/06/21 00:13:49;;;;;;;12.80;9.65;;;;;;;14.22;85.60;100398.16;4910972;29;20056;-76
2022/06/21 00:16:16;;;;;;;12.55;9.95;;;;;;;14.16;85.62;100387.91;4894927;29;20410;-76
2022/06/21 00:18:46;;;;;;;12.85;10.80;;;;;;;14.03;86.29;100379.78;4906110;29;20059;-76
2022/06/21 00:21:17;;;;;;;12.90;11.50;;;;;;;13.90;87.07;100365.53;4913770;29;20056;-75
2022/06/21 00:23:47;;;;;;;12.65;11.20;;;;;;;13.89;87.75;100391.28;4909453;29;21267;-76
2022/06/21 00:26:15;;;;;;;13.32;11.07;;;;;;;13.86;88.72;100382.63;4917803;29;20051;-77
2022/06/21 00:28:43;;;;;;;11.82;10.63;;;;;;;13.79;88.53;100374.19;4910822;29;20580;-76
2022/06/21 00:31:21;;;;;;;15.20;10.90;;;;;;;13.91;88.63;100393.88;4916132;29;20044;-76
2022/06/21 00:33:49;;;;;;;13.18;11.00;;;;;;;13.94;89.18;100391.03;4910040;29;20059;-76
2022/06/21 00:36:29;;;;;;;13.25;11.63;;;;;;;14.01;88.93;100406.50;4905727;29;20071;-77
2022/06/21 00:38:59;;;;;;;15.05;11.00;;;;;;;13.83;88.22;100370.38;4907059;29;20560;-78
2022/06/21 00:41:51;;;;;;;16.27;12.40;;;;;;;13.97;88.83;100410.34;4909565;29;20060;-78
2022/06/21 00:44:36;;;;;;;18.73;12.38;;;;;;;13.95;89.05;100403.38;4910341;29;20460;-77
2022/06/21 00:47:04;;;;;;;13.43;11.27;;;;;;;14.00;88.55;100406.63;4909471;29;20064;-77
2022/06/21 00:49:57;;;;;;;15.00;11.75;;;;;;;13.99;88.32;100397.78;4906103;29;20135;-78
2022/06/21 00:52:42;;;;;;;13.73;11.65;;;;;;;14.00;88.01;100410.16;4906005;29;20047;-77
2022/06/21 00:55:18;;;;;;;13.77;11.30;;;;;;;14.00;88.79;100411.97;4909844;29;20075;-76
2022/06/21 00:57:54;;;;;;;14.38;11.85;;;;;;;14.01;88.16;100414.50;4905507;29;20048;-75
2022/06/21 01:00:32;;;;;;;17.48;11.60;;;;;;;14.05;88.09;100410.72;4909283;29;20051;-76
2022/06/21 01:03:05;;;;;;;13.00;11.35;;;;;;;13.98;87.73;100384.56;4905590;29;20156;-78
2022/06/21 01:05:38;;;;;;;13.32;11.77;;;;;;;14.01;87.15;100405.66;4916853;29;20151;-76
2022/06/21 01:08:06;;;;;;;15.82;12.05;;;;;;;13.78;88.66;100391.09;4908489;29;20048;-79
2022/06/21 01:10:33;;;;;;;13.52;12.23;;;;;;;13.70;88.63;100380.91;4909930;29;20135;-77
2022/06/21 01:13:05;;;;;;;12.48;11.20;;;;;;;13.79;88.89;100402.59;4916770;29;20135;-79
2022/06/21 01:15:37;;;;;;;12.52;11.32;;;;;;;13.74;88.35;100391.38;4905388;29;20103;-76
2022/06/21 01:18:08;;;;;;;14.43;11.82;;;;;;;13.55;88.15;100383.63;4909095;29;20116;-76
2022/06/21 01:20:38;;;;;;;13.77;11.90;;;;;;;13.38;89.10;100376.63;4915076;29;20138;-78
2022/06/21 01:23:24;;;;;;;16.30;13.50;;;;;;;13.22;90.18;100381.97;4910613;29;20102;-78
2022/06/21 01:26:28;;;;;;;13.95;12.02;;;;;;;13.11;91.44;100375.56;4906491;29;20060;-81
2022/06/21 01:28:56;;;;;;;13.82;11.80;;;;;;;13.31;92.54;100407.22;4898718;29;20048;-77
2022/06/21 01:31:23;;;;;;;13.48;11.80;;;;;;;13.35;91.43;100395.44;4905797;29;20104;-77
2022/06/21 01:33:50;;;;;;;16.67;11.70;;;;;;;13.33;91.34;100410.63;4910852;29;20276;-76
2022/06/21 01:39:09;;;;;;;13.35;11.10;;;;;;;13.24;91.76;100401.38;5190262;23;20101;-76
2022/06/21 01:41:46;;;;;;;13.27;11.30;;;;;;;13.24;91.97;100395.19;4929271;29;20103;-77
2022/06/21 01:44:19;;;;;;;12.77;10.80;;;;;;;13.27;91.67;100400.34;5428179;23;20088;-75
2022/06/21 01:46:46;;;;;;;13.27;11.00;;;;;;;13.27;91.24;100395.03;4923116;29;20510;-76
2022/06/21 01:49:25;;;;;;;15.27;11.25;;;;;;;13.25;90.53;100403.09;4929790;28;20048;-76
2022/06/21 01:51:57;;;;;;;15.63;11.43;;;;;;;12.96;91.84;100382.59;4925587;28;20055;-77
2022/06/21 01:54:27;;;;;;;13.90;10.80;;;;;;;13.00;92.08;100408.06;4927540;28;20051;-81
2022/06/21 01:56:54;;;;;;;11.68;10.43;;;;;;;12.98;92.54;100404.63;4932111;28;20071;-78
2022/06/21 01:59:27;;;;;;;12.57;11.25;;;;;;;13.00;92.26;100406.28;4928452;28;20051;-78
2022/06/21 02:02:09;;;;;;;14.30;10.98;;;;;;;12.92;92.02;100404.97;4923916;28;20098;-77
2022/06/21 02:04:44;;;;;;;13.63;9.82;;;;;;;12.92;92.47;100400.50;4930419;28;20055;-78
2022/06/21 02:07:17;;;;;;;11.13;9.63;;;;;;;12.91;92.10;100396.16;4931392;28;20146;-76
2022/06/21 02:09:53;;;;;;;11.85;10.13;;;;;;;12.89;91.56;100395.41;4926921;28;20071;-75
2022/06/21 02:12:20;;;;;;;11.45;10.00;;;;;;;12.77;91.58;100388.09;4928586;28;20048;-77
2022/06/21 02:14:52;;;;;;;11.40;10.23;;;;;;;12.77;92.13;100397.88;4931422;28;20058;-78
2022/06/21 02:17:29;;;;;;;12.80;10.00;;;;;;;12.70;92.15;100397.38;4940731;28;20087;-77
2022/06/21 02:20:14;;;;;;;13.48;9.77;;;;;;;12.62;92.65;100395.13;4929115;28;20223;-76
2022/06/21 02:22:41;;;;;;;11.15;9.30;;;;;;;12.50;92.55;100379.00;4932328;28;20071;-76
2022/06/21 02:25:23;;;;;;;14.18;9.23;;;;;;;12.50;92.54;100394.94;4928841;28;20660;-79
2022/06/21 02:27:53;;;;;;;11.02;9.32;;;;;;;12.45;92.97;100396.97;4940162;28;20067;-78
2022/06/21 02:30:23;;;;;;;10.97;8.93;;;;;;;12.22;92.71;100366.38;4926323;28;20150;-78
2022/06/21 02:32:52;;;;;;;;;;;;;;;12.45;92.98;100395.19;4934030;28;20475;-78
2022/06/21 02:35:54;;;;;;;10.07;8.70;;;;;;;12.44;91.79;100392.63;4932414;28;19982;-77
2022/06/21 02:38:25;;;;;;;10.90;8.63;;;;;;;12.36;91.56;100376.25;4928343;28;20051;-77
2022/06/21 02:40:59;;;;;;;9.60;8.60;;;;;;;12.32;92.51;100387.97;4929522;28;20107;-78
2022/06/21 02:43:43;;;;;;;9.23;8.20;;;;;;;12.14;92.26;100374.75;4937511;28;20066;-77
2022/06/21 02:46:18;;;;;;;10.05;9.02;;;;;;;12.09;92.38;100383.91;4932349;28;20083;-77
2022/06/21 02:48:53;;;;;;;9.38;8.48;;;;;;;12.08;93.13;100387.50;4936602;28;20126;-78
2022/06/21 02:51:26;;;;;;;10.13;8.73;;;;;;;11.94;93.62;100372.31;4930926;29;20056;-78
2022/06/21 02:53:59;;;;;;;9.40;8.43;;;;;;;12.11;93.29;100382.91;4931943;28;20075;-77
2022/06/21 02:56:33;;;;;;;9.18;8.27;;;;;;;12.07;93.09;100372.53;4928663;28;20143;-78
2022/06/21 02:59:01;;;;;;;8.63;7.72;;;;;;;12.10;92.46;100381.19;4931930;28;20103;-77
2022/06/21 03:01:41;;;;;;;12.52;8.88;;;;;;;12.03;92.66;100371.81;4934597;28;20047;-77
2022/06/21 03:04:17;;;;;;;15.25;8.27;;;;;;;12.02;92.97;100372.75;4932816;28;20043;-77
2022/06/21 03:06:44;;;;;;;12.63;8.75;;;;;;;11.96;93.26;100378.41;4932050;28;20067;-77
2022/06/21 03:09:20;;;;;;;9.45;8.10;;;;;;;11.88;93.36;100370.84;4931639;28;20444;-78
2022/06/21 03:12:04;;;;;;;9.75;8.23;;;;;;;11.97;92.55;100393.38;4931289;28;20122;-77
2022/06/21 03:14:34;;;;;;;9.57;7.87;;;;;;;11.92;92.90;100400.72;4931816;28;20050;-79
2022/06/21 03:17:03;;;;;;;13.05;8.70;;;;;;;11.84;93.62;100398.47;4931011;28;20597;-75
2022/06/21 03:19:52;;;;;;;14.52;9.20;;;;;;;11.73;93.17;100382.22;4931578;28;20070;-74
2022/06/21 03:22:24;;;;;;;10.20;8.48;;;;;;;11.80;93.24;100396.94;4920842;29;20048;-77
2022/06/21 03:24:55;;;;;;;12.23;8.73;;;;;;;11.70;93.81;100382.38;4932453;28;20709;-77
2022/06/21 03:27:27;;;;;;;12.43;9.17;;;;;;;11.66;94.25;100386.13;4930248;29;20089;-77
2022/06/21 03:29:55;;;;;;;9.85;8.07;;;;;;;11.71;94.01;100386.75;4930145;28;21014;-75
2022/06/21 03:32:24;;;;;;;11.35;8.98;;;;;;;11.72;93.54;100377.00;4935355;28;20055;-78
2022/06/21 03:34:53;;;;;;;8.93;8.02;;;;;;;11.79;92.54;100384.59;4934721;28;20039;-77
2022/06/21 03:37:20;;;;;;;10.88;8.20;;;;;;;11.66;92.97;100353.44;4929421;29;20055;-75
2022/06/21 03:42:37;;;;;;;10.13;7.75;;;;;;;11.79;92.40;100375.78;4928651;28;20071;-76
2022/06/21 03:45:25;;;;;;;10.30;8.35;;;;;;;11.70;93.20;100365.59;4927815;28;20514;-75
2022/06/21 03:48:03;;;;;;;8.98;7.82;;;;;;;11.64;92.84;100363.28;4924284;28;20091;-76
2022/06/21 03:50:54;;;;;;;9.75;7.60;;;;;;;11.62;92.84;100360.72;4939141;28;20459;-76
2022/06/21 03:53:32;;;;;;;10.30;8.50;;;;;;;11.56;92.73;100358.34;4940645;28;20192;-77
2022/06/21 03:56:24;;;;;;;9.57;8.32;;;;;;;11.46;91.99;100347.38;4929158;28;20051;-76
2022/06/21 03:58:53;;;;;;;10.68;8.23;;;;;;;11.40;92.94;100346.81;4926228;28;20044;-76
2022/06/21 04:01:43;;;;;;;9.07;7.72;;;;;;;11.51;93.08;100355.94;4936080;28;20067;-76
2022/06/21 04:04:25;;;;;;;10.95;7.85;;;;;;;11.55;93.36;100360.16;4927952;28;20469;-77
2022/06/21 04:07:16;;;;;;;12.73;8.13;;;;;;;11.49;92.90;100371.06;4928191;28;20666;-76
2022/06/21 04:09:51;;;;;;;15.30;8.73;;;;;;;11.47;94.02;100362.34;4929475;28;20059;-77
2022/06/21 04:12:33;;;;;;;11.48;8.70;;;;;;;11.29;93.62;100323.53;4925905;28;20423;-76
2022/06/21 04:15:09;;;;;;;12.32;8.90;;;;;;;11.42;93.99;100342.31;4930452;28;20114;-77
2022/06/21 04:17:54;;;;;;;9.73;8.25;;;;;;;11.46;93.97;100355.34;4929145;29;20059;-76
2022/06/21 04:20:29;;;;;;;9.40;8.38;;;;;;;11.45;93.91;100361.56;4933221;28;20131;-77
2022/06/21 04:23:08;;;;;;;9.45;8.45;;;;;;;11.40;93.02;100360.94;4921582;28;20044;-77
2022/06/21 04:26:08;;;;;;;10.90;9.13;;;;;;;11.25;93.83;100340.50;4932852;28;20056;-75
2022/06/21 04:29:01;;;;;;;12.43;9.40;;;;;;;11.41;93.93;100367.97;4929397;28;20051;-76
2022/06/21 04:31:34;;;;;;;10.70;9.65;;;;;;;11.29;93.76;100339.44;4928815;28;20067;-77
2022/06/21 04:34:09;;;;;;;12.65;9.88;;;;;;;11.43;93.60;100350.19;4921666;28;20095;-76
2022/06/21 04:37:17;;;;;;;12.95;10.02;;;;;;;11.38;93.27;100333.63;4931747;28;20523;-76
2022/06/21 04:39:59;;;;;;;13.50;9.80;;;;;;;11.53;93.32;100351.41;4919788;29;20055;-75
2022/06/21 04:42:35;;;;;;;16.65;12.48;;;;;;;11.57;92.70;100350.31;4927164;28;20043;-75
2022/06/21 04:45:18;;;;;;;10.88;9.65;;;;;;;11.59;92.93;100347.59;4931831;28;20487;-76
2022/06/21 04:47:51;;;;;;;11.35;9.02;;;;;;;11.60;92.31;100344.88;4927979;28;20139;-78
2022/06/21 04:50:34;;;;;;;10.90;9.50;;;;;;;11.79;92.38;100359.88;4929534;28;20075;-77
2022/06/21 04:53:17;;;;;;;11.77;9.23;;;;;;;11.91;91.79;100360.06;4924191;29;20060;-77
2022/06/21 04:55:53;;;;;;;11.20;8.35;;;;;;;12.06;91.13;100352.22;4926753;28;20439;-77
2022/06/21 04:58:20;;;;;;;14.00;8.70;;;;;;;12.16;90.28;100364.91;4921765;28;20059;-76
2022/06/21 05:00:47;;;;;;;11.18;8.25;;;;;;;12.08;89.94;100337.09;4934430;28;20047;-76
2022/06/21 05:03:38;;;;;;;10.18;8.88;;;;;;;12.33;89.68;100360.47;4935466;28;20580;-75
2022/06/21 05:06:05;;;;;;;11.93;9.05;;;;;;;12.44;89.21;100358.09;4928188;28;20067;-76
2022/06/21 05:08:32;;;;;;;12.48;9.43;;;;;;;12.51;89.17;100348.84;4929460;28;20472;-76
2022/06/21 05:11:02;;;;;;;11.07;8.45;;;;;;;12.58;88.40;100348.44;4926102;28;20055;-77
2022/06/21 05:13:40;;;;;;;9.80;8.25;;;;;;;12.72;88.26;100355.63;4922701;28;20071;-77
2022/06/21 05:16:30;;;;;;;10.20;8.48;;;;;;;12.73;87.86;100345.88;4930259;28;20130;-76
2022/06/21 05:19:12;;;;;;;11.97;8.83;;;;;;;12.56;87.40;100336.19;4926390;28;20548;-77
2022/06/21 05:21:44;;;;;;;11.10;8.27;;;;;;;12.78;87.65;100354.41;4931181;28;20047;-77
2022/06/21 05:24:13;;;;;;;11.68;9.68;;;;;;;12.71;86.95;100319.38;4935897;28;20055;-75
2022/06/21 05:27:01;;;;;;;10.13;9.02;;;;;;;12.91;86.47;100350.97;4929624;29;20130;-76
2022/06/21 05:29:40;;;;;;;9.05;8.15;;;;;;;13.01;86.34;100353.97;4929574;28;20052;-77
2022/06/21 05:32:38;;;;;;;11.23;9.00;;;;;;;12.95;86.13;100355.16;4924190;28;20048;-77
2022/06/21 05:35:17;;;;;;;9.02;8.10;;;;;;;12.77;86.23;100345.56;4919383;28;20052;-76
2022/06/21 05:38:11;;;;;;;11.02;9.20;;;;;;;12.80;86.49;100368.47;4922103;28;20201;-77
2022/06/21 05:40:58;;;;;;;10.55;9.40;;;;;;;12.65;87.18;100352.44;4925415;28;20062;-76
2022/06/21 05:43:47;;;;;;;9.85;8.85;;;;;;;12.83;87.21;100376.28;4929564;28;20131;-78
2022/06/21 05:46:17;;;;;;;9.43;8.05;;;;;;;12.78;86.23;100354.41;4927070;28;20052;-78
2022/06/21 05:48:45;;;;;;;11.18;9.70;;;;;;;12.81;86.38;100394.97;4918850;29;20083;-78
2022/06/21 05:51:23;;;;;;;10.93;8.90;;;;;;;12.58;87.29;100342.28;4929464;28;20048;-77
2022/06/21 05:53:55;;;;;;;11.32;9.63;;;;;;;12.87;87.33;100367.19;4931939;29;20085;-78
2022/06/21 05:56:25;;;;;;;9.88;8.98;;;;;;;12.98;87.27;100378.91;4932344;28;20310;-78
2022/06/21 05:58:57;;;;;;;10.73;8.70;;;;;;;13.12;86.90;100374.59;4931444;28;20124;-79
2022/06/21 06:01:41;;;;;;;9.88;8.88;;;;;;;13.33;85.51;100394.69;4930626;28;20063;-78
2022/06/21 06:04:27;;;;;;;9.60;8.57;;;;;;;13.31;85.38;100380.59;4922300;28;20062;-78
2022/06/21 06:06:56;;;;;;;10.88;7.97;;;;;;;13.67;85.33;100393.56;4926118;28;20138;-76
2022/06/21 06:09:27;;;;;;;9.35;8.15;;;;;;;13.92;85.89;100395.56;4925778;28;20107;-78
2022/06/21 06:12:00;;;;;;;8.88;7.95;;;;;;;14.02;81.58;100392.25;4933960;28;20056;-78
2022/06/21 06:14:40;;;;;;;9.38;8.38;;;;;;;13.89;82.61;100370.00;4926647;28;20107;-78
2022/06/21 06:17:45;;;;;;;9.73;7.78;;;;;;;14.26;81.91;100383.72;4926349;28;20126;-78
2022/06/21 06:20:26;;;;;;;9.57;7.28;;;;;;;14.68;79.32;100391.69;4913593;28;20074;-77
2022/06/21 06:22:59;;;;;;;9.43;7.97;;;;;;;14.99;78.35;100387.91;4926597;28;20511;-74
2022/06/21 06:25:42;;;;;;;9.10;7.47;;;;;;;15.37;76.69;100389.84;4924359;28;20069;-74
2022/06/21 06:28:47;;;;;;;7.97;6.70;;;;;;;15.85;74.86;100385.72;4923992;28;20579;-75
2022/06/21 06:31:28;;;;;;;7.53;6.82;;;;;;;16.32;73.43;100374.38;4913986;29;20052;-73
2022/06/21 06:34:00;;;;;;;7.50;6.88;;;;;;;16.76;69.97;100381.88;4920697;28;20496;-74
2022/06/21 06:36:37;;;;;;;10.27;7.10;;;;;;;16.84;69.38;100363.44;4925987;28;20746;-75
2022/06/21 06:39:20;;;;;;;8.77;6.32;;;;;;;17.26;69.29;100373.78;4919690;28;20416;-75
2022/06/21 06:41:47;;;;;;;9.02;6.45;;;;;;;17.77;66.58;100390.41;4928130;28;20043;-75
2022/06/21 06:44:16;;;;;;;6.38;5.78;;;;;;;18.05;63.35;100378.41;4923918;28;20111;-74
2022/06/21 06:46:47;;;;;;;7.78;6.25;;;;;;;18.33;64.86;100391.34;4930516;28;20076;-74
2022/06/21 06:49:33;;;;;;;6.15;5.60;;;;;;;18.67;63.18;100383.31;4920895;28;20063;-76
2022/06/21 06:52:19;;;;;;;7.15;6.45;;;;;;;18.75;60.65;100387.06;4919516;28;20803;-75
2022/06/21 06:55:11;;;;;;;7.03;6.32;;;;;;;18.89;62.00;100388.63;4914574;29;20070;-75
2022/06/21 06:57:48;;;;;;;8.75;6.47;;;;;;;19.09;61.68;100379.81;4918519;28;20063;-77
2022/06/21 07:00:23;;;;;;;8.52;6.20;;;;;;;19.08;59.97;100366.50;4916252;28;20054;-73
2022/06/21 07:02:56;;;;;;;8.02;6.93;;;;;;;19.07;61.17;100362.13;4917661;28;20048;-73
2022/06/21 07:05:36;;;;;;;9.13;6.47;;;;;;;18.95;60.34;100385.47;4916019;28;20512;-74
2022/06/21 07:08:32;;;;;;;9.90;6.85;;;;;;;18.83;61.83;100389.16;4914325;28;20052;-75
2022/06/21 07:11:03;;;;;;;10.23;7.07;;;;;;;18.62;62.24;100390.88;4910426;28;20060;-74
2022/06/21 07:13:32;;;;;;;8.60;7.10;;;;;;;18.72;62.49;100391.84;4913834;28;20056;-74
2022/06/21 07:16:05;;;;;;;8.65;6.82;;;;;;;18.91;62.67;100387.53;4921445;28;20507;-70
2022/06/21 07:18:37;;;;;;;8.13;7.32;;;;;;;19.15;60.80;100411.53;4920400;28;20504;-75
2022/06/21 07:21:05;;;;;;;8.73;7.32;;;;;;;18.94;61.16;100391.81;4924075;29;20076;-74
2022/06/21 07:23:32;;;;;;;9.27;7.38;;;;;;;18.88;61.73;100414.63;4928952;28;20310;-75
2022/06/21 07:26:17;;;;;;;9.38;7.72;;;;;;;18.94;61.89;100407.91;4932797;28;20063;-76
2022/06/21 07:28:56;;;;;;;9.23;6.50;;;;;;;19.28;61.46;100406.84;4931595;29;20052;-75
2022/06/21 07:31:28;;;;;;;7.88;7.05;;;;;;;19.35;59.65;100387.53;4935556;28;20130;-76
2022/06/21 07:34:03;;;;;;;9.43;7.50;;;;;;;19.51;59.06;100409.47;4933247;28;20138;-75
2022/06/21 07:36:38;;;;;;;12.13;7.93;;;;;;;19.49;59.21;100406.03;4932974;28;20067;-74
2022/06/21 07:39:14;;;;;;;10.07;7.75;;;;;;;19.37;59.40;100390.94;4928292;28;20055;-74
2022/06/21 07:42:10;;;;;;;8.55;6.13;;;;;;;19.81;58.62;100393.44;4933617;28;20058;-75
2022/06/21 07:44:49;;;;;;;8.73;6.72;;;;;;;20.17;58.18;100388.56;4932954;29;20063;-75
2022/06/21 07:47:43;;;;;;;7.30;6.28;;;;;;;20.30;57.95;100368.53;4931184;28;20551;-75
2022/06/21 07:50:17;;;;;;;9.02;6.35;;;;;;;20.80;54.73;100384.75;4931763;28;20075;-75
2022/06/21 07:52:53;;;;;;;10.15;7.03;;;;;;;20.89;55.21;100375.00;4933430;28;20051;-75
2022/06/21 07:55:27;;;;;;;7.95;7.15;;;;;;;20.86;55.81;100380.66;4932337;29;20511;-75
2022/06/21 07:57:59;;;;;;;8.43;6.40;;;;;;;20.52;55.13;100366.66;4932886;28;20054;-74
2022/06/21 08:06:41;;;;;;;8.18;6.45;;;;;;;20.41;55.52;100347.94;4937875;28;20051;-75
2022/06/21 08:09:09;;;;;;;7.72;5.93;;;;;;;21.73;51.25;100365.41;4929377;28;20467;-75
2022/06/21 08:11:40;;;;;;;8.10;5.72;;;;;;;22.02;49.61;100360.88;4927431;29;20130;-75
2022/06/21 08:14:08;;;;;;;7.85;5.57;;;;;;;22.12;48.67;100344.63;4928377;28;20062;-75
2022/06/21 08:16:45;;;;;;;8.50;5.50;;;;;;;22.33;47.31;100341.72;4925960;28;20072;-76
2022/06/21 08:19:28;;;;;;;8.70;6.03;;;;;;;22.20;46.64;100325.84;4930659;28;20566;-75
2022/06/21 08:22:17;;;;;;;8.48;5.40;;;;;;;22.18;47.28;100321.63;4925620;29;20051;-75
2022/06/21 08:24:54;;;;;;;7.68;5.82;;;;;;;22.25;47.44;100318.19;4927074;29;20484;-77
2022/06/21 08:28:00;;;;;;;9.55;5.70;;;;;;;22.24;46.28;100288.66;4930979;28;20052;-76
2022/06/21 08:30:33;;;;;;;8.77;5.57;;;;;;;22.24;47.44;100262.53;4908340;29;20084;-75
2022/06/21 08:33:09;;;;;;;10.68;5.13;;;;;;;22.22;47.25;100247.50;4911289;29;20460;-74
2022/06/21 08:35:45;;;;;;;9.10;4.93;;;;;;;22.09;48.03;100250.53;4922472;29;20076;-77
2022/06/21 08:38:28;;;;;;;8.77;5.22;;;;;;;21.81;47.94;100246.94;4926053;28;20460;-75
2022/06/21 08:41:51;;;;;;;6.88;4.03;;;;;;;21.95;49.37;100254.53;4926915;28;20142;-75
2022/06/21 08:44:46;;;;;;;6.00;3.85;;;;;;;22.11;46.59;100245.84;4928170;28;20087;-75
2022/06/21 08:47:51;;;;;;;10.32;4.18;;;;;;;21.98;46.57;100234.53;4926812;28;20078;-74
2022/06/21 08:50:21;;;;;;;6.03;3.55;;;;;;;22.04;45.12;100218.63;4926010;29;20582;-74
2022/06/21 08:53:03;;;;;;;5.97;3.97;;;;;;;22.14;45.26;100177.28;4924750;29;20056;-73
2022/06/21 08:55:57;;;;;;;7.07;3.42;;;;;;;21.91;45.99;100137.22;4920265;28;20139;-75
2022/06/21 08:58:32;;;;;;;4.88;3.70;;;;;;;21.74;46.39;100077.88;4926803;28;20051;-75
2022/06/21 09:01:15;;;;;;;9.45;4.38;;;;;;;21.83;45.90;100085.91;4919295;28;20138;-73
2022/06/21 09:04:23;;;;;;;5.38;3.55;;;;;;;21.88;46.79;100134.81;4930937;28;20151;-75
2022/06/21 09:07:07;;;;;;;7.78;4.15;;;;;;;21.87;46.39;100133.16;4924402;28;20135;-75
2022/06/21 09:09:43;;;;;;;6.13;3.90;;;;;;;22.13;45.69;100179.13;4929229;28;20079;-74
2022/06/21 09:12:30;;;;;;;6.50;4.10;;;;;;;21.99;45.67;100160.75;4926717;28;20081;-74
2022/06/21 09:15:21;;;;;;;5.57;3.30;;;;;;;22.42;45.98;100192.44;4921001;28;20071;-76
2022/06/21 09:18:09;;;;;;;4.13;3.10;;;;;;;22.74;44.19;100213.50;4923841;29;20047;-74
2022/06/21 09:20:58;;;;;;;5.70;2.70;;;;;;;22.92;42.57;100237.81;4929220;28;20083;-74
2022/06/21 09:23:49;;;;;;;4.57;2.28;;;;;;;23.00;41.20;100260.34;4923936;29;20123;-75
2022/06/21 09:26:36;;;;;;;5.97;2.85;;;;;;;22.79;40.87;100230.13;4925243;28;20054;-75
2022/06/21 09:29:18;;;;;;;6.50;3.00;;;;;;;22.80;41.45;100253.41;4927083;28;20106;-75
2022/06/21 09:31:48;;;;;;;6.78;3.17;;;;;;;22.70;41.15;100256.13;4925858;29;20087;-75
2022/06/21 09:34:22;;;;;;;5.60;3.15;;;;;;;22.44;42.05;100252.50;4926102;28;20794;-74
2022/06/21 09:37:34;;;;;;;3.72;2.80;;;;;;;22.35;42.23;100227.25;4922521;28;20119;-75
2022/06/21 09:40:19;;;;;;;6.57;2.95;;;;;;;22.34;42.62;100235.53;4918758;29;20465;-74
2022/06/21 09:43:15;;;;;;;4.60;2.72;;;;;;;22.39;41.53;100211.63;4929291;29;20072;-75
2022/06/21 09:46:36;;;;;;;6.93;2.60;;;;;;;22.58;42.05;100251.13;4931787;29;20052;-75
2022/06/21 09:49:23;;;;;;;6.47;2.20;;;;;;;22.71;41.59;100238.09;4908113;29;20079;-75
2022/06/21 09:52:02;;;;;;;3.53;2.40;;;;;;;22.85;40.27;100234.03;4908657;29;20048;-75
2022/06/21 09:54:42;;;;;;;4.55;2.47;;;;;;;22.89;40.43;100224.63;4919772;28;20059;-76
2022/06/21 09:57:32;;;;;;;;;;;;;;;23.03;39.54;100233.03;4928510;29;20086;-74
2022/06/21 10:00:04;;;;;;;5.47;2.50;;;;;;;22.92;39.93;100233.28;4923138;28;20331;-74
2022/06/21 10:02:59;;;;;;;5.68;2.05;;;;;;;22.83;40.72;100227.94;4921823;28;20051;-75
2022/06/21 10:05:36;;;;;;;5.30;2.25;;;;;;;22.89;40.08;100219.22;4927993;28;20059;-75
2022/06/21 10:08:08;;;;;;;5.63;2.55;;;;;;;22.97;40.54;100203.13;4923617;28;20131;-76
2022/06/21 10:11:07;;;;;;;3.25;2.50;;;;;;;23.32;40.00;100212.97;4924787;28;20079;-75
2022/06/21 10:14:01;;;;;;;5.35;2.95;;;;;;;23.53;40.13;100215.34;4921613;29;20202;-74
2022/06/21 10:16:49;;;;;;;7.05;2.88;;;;;;;23.54;39.54;100222.47;4930708;28;20500;-74
2022/06/21 10:19:41;;;;;;;7.20;2.67;;;;;;;23.21;39.84;100197.03;4928242;28;20068;-75
2022/06/21 10:22:31;;;;;;;4.30;2.60;;;;;;;23.33;39.96;100198.47;4923295;28;20107;-75
2022/06/21 10:25:18;;;;;;;8.40;3.00;;;;;;;23.31;41.07;100195.91;4920912;29;20052;-76
2022/06/21 10:27:51;;;;;;;3.63;2.00;;;;;;;23.28;40.62;100208.91;4923259;28;20048;-76
2022/06/21 10:30:17;;;;;;;3.13;2.47;;;;;;;23.60;40.14;100205.63;4924078;28;20091;-75
2022/06/21 10:33:10;;;;;;;7.13;2.85;;;;;;;23.80;39.10;100204.34;4928401;28;20071;-74
2022/06/21 10:35:55;;;;;;;4.63;2.70;;;;;;;23.89;38.20;100205.25;4925902;28;20150;-75
2022/06/21 10:38:36;;;;;;;4.00;2.45;;;;;;;24.04;39.06;100187.41;4924918;28;20103;-75
2022/06/21 10:41:27;;;;;;;5.43;2.40;;;;;;;24.35;38.50;100195.81;4926037;29;20135;-74
2022/06/21 10:44:17;;;;;;;6.15;2.92;;;;;;;24.71;37.98;100188.28;4928456;29;20072;-75
2022/06/21 10:46:50;;;;;;;4.43;2.40;;;;;;;24.98;37.24;100179.84;4935303;28;20177;-75
2022/06/21 10:49:44;;;;;;;6.13;2.30;;;;;;;25.08;37.44;100179.66;4917805;29;20479;-75
2022/06/21 10:52:37;;;;;;;5.35;2.50;;;;;;;25.36;35.87;100171.97;4928353;28;20518;-75
2022/06/21 10:55:29;;;;;;;3.55;2.40;;;;;;;25.43;35.97;100160.28;4925722;28;20051;-75
2022/06/21 10:58:05;;;;;;;6.15;3.13;;;;;;;25.31;36.50;100148.13;4923885;28;20127;-75
2022/06/21 11:04:17;;;;;;;4.85;2.22;;;;;;;24.71;35.80;100167.41;4928046;28;20066;-74
2022/06/21 11:06:54;;;;;;;3.28;1.98;;;;;;;24.87;35.55;100155.75;4923118;28;20047;-75
2022/06/21 11:09:36;;;;;;;3.03;1.67;;;;;;;24.87;34.62;100133.25;4929160;28;20051;-75
2022/06/21 11:15:43;;;;;;;5.43;2.47;;;;;;;25.09;35.19;100148.84;4935824;28;20051;-75
2022/06/21 11:18:20;;;;;;;3.38;1.70;;;;;;;24.64;34.48;100081.63;4927620;28;20196;-75
2022/06/21 11:21:12;;;;;;;3.33;1.83;;;;;;;25.01;33.93;100143.44;4924148;28;20067;-76
2022/06/21 11:23:41;;;;;;;2.92;1.73;;;;;;;24.80;32.83;100122.25;4929888;28;20047;-74
2022/06/21 11:26:31;;;;;;;4.80;2.00;;;;;;;24.79;33.38;100143.06;4921047;28;20636;-75
2022/06/21 11:29:15;;;;;;;4.18;1.45;;;;;;;24.81;32.43;100141.03;4926671;28;20106;-74
2022/06/21 11:31:55;;;;;;;3.75;1.80;;;;;;;24.67;32.17;100128.19;4924943;29;20076;-75
2022/06/21 11:34:40;;;;;;;3.35;1.38;;;;;;;24.60;32.67;100126.31;4928451;28;20110;-76
2022/06/21 11:37:31;;;;;;;3.22;1.63;;;;;;;24.52;32.59;100124.44;4932516;28;20079;-75
2022/06/21 11:40:23;;;;;;;1.67;1.50;;;;;;;24.61;32.90;100119.88;4915525;29;20079;-76
2022/06/21 11:42:52;;;;;;;6.25;1.75;;;;;;;24.91;32.28;100104.78;4925536;29;20102;-76
2022/06/21 11:45:56;;;;;;;2.70;1.50;;;;;;;25.31;32.02;100114.75;4931706;28;20083;-75
2022/06/21 11:48:50;;;;;;;3.83;1.58;;;;;;;25.59;31.76;100109.75;4927524;28;20051;-75
2022/06/21 11:51:28;;;;;;;3.50;1.80;;;;;;;25.66;30.90;100108.88;4928378;28;20098;-75
2022/06/21 11:53:55;;;;;;;4.25;1.45;;;;;;;25.47;31.69;100096.56;4922693;28;20449;-75
2022/06/21 11:56:29;;;;;;;2.95;1.80;;;;;;;25.55;31.85;100100.25;4930596;28;20055;-75
2022/06/21 11:59:06;;;;;;;3.95;1.73;;;;;;;25.62;30.81;100096.72;4927955;28;20194;-74
2022/06/21 12:02:14;;;;;;;2.97;1.50;;;;;;;25.81;31.06;100085.41;4923395;28;20091;-77
2022/06/21 12:05:00;;;;;;;1.77;1.50;;;;;;;26.30;29.09;100090.56;4923424;29;20056;-75
2022/06/21 12:07:40;;;;;;;3.80;1.40;;;;;;;26.42;29.64;100089.16;4933258;28;20562;-75
2022/06/21 12:10:09;;;;;;;3.33;1.67;;;;;;;26.54;29.93;100070.56;4929264;28;20579;-74
2022/06/21 12:12:49;;;;;;;4.07;1.60;;;;;;;26.58;29.16;100052.88;4929038;28;20048;-74
2022/06/21 12:15:25;;;;;;;2.97;1.55;;;;;;;26.11;30.29;100058.47;4927575;28;20480;-74
2022/06/21 12:17:59;;;;;;;3.35;1.55;;;;;;;25.91;30.88;100046.38;4917195;28;20515;-75
2022/06/21 12:20:31;;;;;;;3.70;1.70;;;;;;;26.01;32.07;100049.69;4926838;28;20072;-76
2022/06/21 12:23:26;;;;;;;2.88;1.52;;;;;;;26.25;30.44;100046.00;4931076;29;20051;-75
2022/06/21 12:25:54;;;;;;;2.65;1.50;;;;;;;26.55;29.40;100054.06;4924534;28;20508;-76
2022/06/21 12:28:28;;;;;;;3.63;1.60;;;;;;;26.42;29.78;100053.00;4926011;29;20047;-73
2022/06/21 12:31:09;;;;;;;2.85;1.50;;;;;;;26.50;29.19;100058.34;4928443;28;20059;-74
2022/06/21 12:33:38;;;;;;;5.05;1.60;;;;;;;26.37;29.29;100026.41;4930549;28;20055;-76
2022/06/21 12:36:13;;;;;;;5.35;1.50;;;;;;;26.28;29.35;100056.50;4929910;28;20099;-76